Time;durP1;ratioP1;P1;durP2;ratioP2;P2;SDS_P1;SDS_P2;PMS_P1;PMS_P2;Temp;Humidity;BMP_temperature;BMP_pressure;BME280_temperature;BME280_humidity;BME280_pressure;Samples;Min_cycle;Max_cycle;Signal;HPM_P1;HPM_P2
2022/08/03 08:09:05;;;;;;;11.07;3.10;;;;;;;22.87;66.99;101379.44;5363604;27;20416;-75
2022/08/03 08:11:39;;;;;;;11.40;3.03;;;;;;;22.88;66.41;101383.91;5361245;27;20027;-73
2022/08/03 08:14:11;;;;;;;9.07;2.90;;;;;;;22.98;66.47;101385.41;5342460;28;20031;-72
2022/08/03 08:16:42;;;;;;;12.48;2.97;;;;;;;23.17;66.38;101387.56;5350612;27;20046;-72
2022/08/03 08:19:15;;;;;;;14.60;3.38;;;;;;;23.12;66.10;101379.34;5362926;27;20038;-73
2022/08/03 08:21:46;;;;;;;12.65;3.53;;;;;;;23.22;65.41;101373.16;5363684;27;20023;-73
2022/08/03 08:24:18;;;;;;;8.70;3.30;;;;;;;23.24;65.19;101379.28;5363101;27;20049;-75
2022/08/03 08:26:49;;;;;;;13.43;3.53;;;;;;;23.34;65.29;101377.88;5363744;27;20031;-75
2022/08/03 08:29:22;;;;;;;8.80;2.70;;;;;;;23.35;64.57;101373.88;5361785;27;20026;-75
2022/08/03 08:31:53;;;;;;;7.57;3.22;;;;;;;23.38;64.72;101376.81;5362840;27;20031;-76
2022/08/03 08:34:25;;;;;;;12.73;3.30;;;;;;;23.46;64.65;101377.00;5363941;27;20481;-76
2022/08/03 08:36:56;;;;;;;12.25;3.17;;;;;;;23.58;64.59;101372.06;5363644;27;20033;-76
2022/08/03 08:39:27;;;;;;;6.78;2.70;;;;;;;23.64;64.29;101375.44;5362823;27;20114;-75
2022/08/03 08:41:59;;;;;;;13.25;4.25;;;;;;;23.79;63.07;101370.97;5363376;27;20023;-76
2022/08/03 08:44:30;;;;;;;8.13;2.88;;;;;;;23.76;62.64;101369.69;5363554;27;20071;-76
2022/08/03 08:47:02;;;;;;;7.60;3.63;;;;;;;23.91;62.80;101364.38;5348567;27;20023;-77
2022/08/03 08:49:34;;;;;;;7.97;2.60;;;;;;;24.13;62.66;101377.84;5341732;27;20164;-76
2022/08/03 08:52:10;;;;;;;8.00;2.75;;;;;;;24.06;62.29;101372.03;5351280;27;20038;-76
2022/08/03 08:54:43;;;;;;;10.13;3.55;;;;;;;24.09;61.18;101372.09;5362341;27;20411;-75
2022/08/03 08:57:16;;;;;;;10.48;2.80;;;;;;;24.21;60.96;101374.00;5360970;27;20065;-75
2022/08/03 08:59:48;;;;;;;9.13;2.67;;;;;;;24.34;60.67;101369.03;5362068;27;20718;-75
2022/08/03 09:02:19;;;;;;;12.05;2.90;;;;;;;24.27;60.25;101366.03;5361913;27;20038;-75
2022/08/03 09:04:51;;;;;;;10.50;3.67;;;;;;;24.34;59.98;101374.69;5361262;27;20027;-76
2022/08/03 09:07:23;;;;;;;10.93;3.25;;;;;;;24.34;59.27;101379.50;5361704;27;20054;-75
2022/08/03 09:09:55;;;;;;;10.10;3.13;;;;;;;24.30;59.41;101366.09;5349378;27;20027;-75
2022/08/03 09:12:26;;;;;;;16.95;3.22;;;;;;;24.41;59.72;101368.34;5347757;27;20027;-75
2022/08/03 09:15:15;;;;;;;8.20;3.60;;;;;;;24.55;58.84;101380.03;5347553;27;20043;-75
2022/08/03 09:17:47;;;;;;;11.18;3.30;;;;;;;24.68;58.99;101373.00;5350043;27;20031;-75
2022/08/03 09:20:20;;;;;;;20.73;15.50;;;;;;;24.64;58.77;101374.94;5342966;27;20046;-77
2022/08/03 09:22:58;;;;;;;66.82;60.40;;;;;;;24.83;58.26;101367.63;5349055;27;20115;-78
2022/08/03 09:25:39;;;;;;;12.00;3.53;;;;;;;24.89;58.10;101375.44;5348417;27;20031;-76
2022/08/03 09:28:13;;;;;;;9.27;2.95;;;;;;;25.07;57.84;101378.63;5346908;27;20040;-76
2022/08/03 09:30:57;;;;;;;10.13;3.73;;;;;;;25.09;58.13;101369.75;5348497;27;20027;-77
2022/08/03 09:33:29;;;;;;;9.27;3.38;;;;;;;25.02;57.41;101373.25;5347641;27;20054;-76
2022/08/03 09:36:00;;;;;;;10.77;3.47;;;;;;;25.12;56.97;101364.13;5347528;27;20017;-76
2022/08/03 09:38:34;;;;;;;8.98;2.97;;;;;;;25.19;56.81;101369.16;5329263;27;20058;-75
2022/08/03 09:41:17;;;;;;;11.80;3.00;;;;;;;25.41;56.35;101375.22;5326215;28;20089;-77
2022/08/03 09:43:53;;;;;;;11.93;3.70;;;;;;;25.25;56.11;101369.66;5326021;28;20019;-77
2022/08/03 09:46:24;;;;;;;12.45;3.60;;;;;;;25.34;55.92;101378.75;5326561;28;20128;-77
2022/08/03 09:49:11;;;;;;;15.20;3.50;;;;;;;25.54;55.87;101380.34;5338536;27;20027;-77
2022/08/03 09:51:44;;;;;;;11.45;3.55;;;;;;;25.57;55.33;101373.88;5347520;27;20062;-77
2022/08/03 09:54:26;;;;;;;11.10;2.97;;;;;;;25.65;55.24;101368.31;5340141;27;20028;-77
2022/08/03 09:56:58;;;;;;;9.80;3.33;;;;;;;25.64;54.67;101369.50;5325237;28;20023;-76
2022/08/03 09:59:31;;;;;;;13.98;3.90;;;;;;;25.73;54.35;101370.91;5326001;28;20425;-81
2022/08/03 10:02:02;;;;;;;12.02;4.20;;;;;;;25.67;54.75;101369.59;5338350;27;20023;-81
2022/08/03 10:04:46;;;;;;;12.75;4.70;;;;;;;25.87;54.61;101367.47;5346508;27;20470;-78
2022/08/03 10:07:21;;;;;;;10.20;2.72;;;;;;;25.88;54.10;101369.13;5347437;27;20062;-77
2022/08/03 10:09:57;;;;;;;16.17;3.58;;;;;;;25.89;53.29;101373.59;5346823;27;20019;-77
2022/08/03 10:12:28;;;;;;;11.10;3.47;;;;;;;25.93;53.14;101362.31;5329375;27;20090;-76
2022/08/03 10:14:59;;;;;;;11.20;3.72;;;;;;;25.91;53.80;101370.41;5325947;28;20055;-76
2022/08/03 10:17:34;;;;;;;15.48;4.03;;;;;;;25.99;52.97;101360.75;5342481;27;20027;-77
2022/08/03 10:20:06;;;;;;;12.20;3.40;;;;;;;26.12;52.38;101364.19;5345948;27;20130;-78
2022/08/03 10:22:40;;;;;;;12.35;3.90;;;;;;;26.30;52.62;101362.41;5347274;27;20030;-73
2022/08/03 10:25:14;;;;;;;14.00;4.77;;;;;;;26.19;52.64;101359.44;5346000;27;20031;-77
2022/08/03 10:27:50;;;;;;;18.98;3.35;;;;;;;26.24;52.70;101352.59;5343213;27;20395;-77
2022/08/03 10:30:23;;;;;;;13.00;3.55;;;;;;;26.44;52.03;101354.09;5343617;27;20043;-78
2022/08/03 10:33:01;;;;;;;11.30;3.70;;;;;;;26.41;51.84;101352.03;5346037;27;20526;-77
2022/08/03 10:35:35;;;;;;;10.43;3.65;;;;;;;26.50;51.04;101359.44;5346875;27;20034;-77
2022/08/03 10:38:15;;;;;;;12.47;3.67;;;;;;;26.61;50.85;101349.88;5346254;27;20034;-78
2022/08/03 10:40:52;;;;;;;13.10;3.95;;;;;;;26.65;50.67;101349.91;5347207;27;20369;-77
2022/08/03 10:43:47;;;;;;;13.93;4.97;;;;;;;26.67;51.09;101341.81;5346235;27;20099;-78
2022/08/03 10:46:20;;;;;;;13.80;3.13;;;;;;;26.66;50.31;101340.16;5344342;27;20050;-75
2022/08/03 10:48:52;;;;;;;10.35;3.60;;;;;;;26.79;49.45;101330.16;5346418;27;20737;-75
2022/08/03 10:51:29;;;;;;;12.60;4.30;;;;;;;26.80;49.83;101328.13;5346242;27;20023;-76
2022/08/03 10:54:00;;;;;;;14.70;4.38;;;;;;;26.79;50.08;101332.19;5345467;27;20027;-76
2022/08/03 10:59:43;;;;;;;13.55;3.65;;;;;;;27.06;49.50;101330.03;5345444;27;20491;-76
2022/08/03 11:02:15;;;;;;;15.55;3.30;;;;;;;27.14;49.07;101320.34;5342759;27;20062;-77
2022/08/03 11:05:27;;;;;;;11.70;3.80;;;;;;;27.24;48.35;101322.50;5346487;27;20043;-77
2022/08/03 11:08:18;;;;;;;10.45;3.20;;;;;;;27.35;48.08;101314.06;5344567;27;20046;-78
2022/08/03 11:10:52;;;;;;;10.38;3.33;;;;;;;27.42;47.91;101307.59;5345602;27;20086;-77
2022/08/03 11:13:27;;;;;;;12.30;4.30;;;;;;;27.57;47.61;101303.66;5345146;27;20040;-76
2022/08/03 11:16:16;;;;;;;13.37;6.03;;;;;;;27.67;46.88;101310.66;5345771;27;20027;-76
2022/08/03 11:19:00;;;;;;;8.10;3.45;;;;;;;27.84;46.91;101315.69;5342326;27;20285;-76
2022/08/03 11:21:49;;;;;;;13.30;6.38;;;;;;;27.81;46.52;101304.22;5336947;27;20054;-75
2022/08/03 11:24:52;;;;;;;13.30;4.32;;;;;;;27.91;45.82;101307.16;5345802;27;20027;-77
2022/08/03 11:27:28;;;;;;;8.63;2.80;;;;;;;27.98;46.05;101311.28;5330449;27;20095;-80
2022/08/03 11:30:06;;;;;;;7.88;3.70;;;;;;;28.18;46.04;101310.56;5344523;27;20419;-76
2022/08/03 11:32:38;;;;;;;9.48;2.30;;;;;;;28.15;46.12;101308.53;5345452;27;20351;-75
2022/08/03 11:35:20;;;;;;;6.50;2.28;;;;;;;28.10;46.52;101303.22;5344964;27;20035;-76
2022/08/03 11:38:01;;;;;;;7.85;2.63;;;;;;;28.28;45.77;101313.88;5330944;27;20027;-76
2022/08/03 11:40:38;;;;;;;6.97;1.90;;;;;;;28.30;45.89;101311.44;5345510;27;20046;-76
2022/08/03 11:43:29;;;;;;;6.63;2.33;;;;;;;28.39;45.60;101312.69;5344869;27;20966;-75
2022/08/03 11:46:20;;;;;;;6.72;2.78;;;;;;;28.45;45.39;101315.19;5343255;27;20027;-78
2022/08/03 11:48:57;;;;;;;7.93;3.03;;;;;;;28.54;45.13;101309.94;5344573;27;20389;-75
2022/08/03 11:51:32;;;;;;;6.50;2.08;;;;;;;28.55;45.14;101303.81;5345824;27;20053;-76
2022/08/03 11:54:05;;;;;;;8.73;2.38;;;;;;;28.66;45.05;101312.44;5344328;27;20155;-76
2022/08/03 11:56:48;;;;;;;7.07;3.00;;;;;;;28.73;45.30;101312.44;5344809;27;20118;-76
2022/08/03 11:59:31;;;;;;;4.65;1.75;;;;;;;28.73;44.93;101308.75;5345317;28;20466;-76
2022/08/03 12:02:09;;;;;;;6.15;2.53;;;;;;;28.69;44.71;101305.09;5344565;28;20084;-76
2022/08/03 12:04:50;;;;;;;5.60;2.15;;;;;;;28.87;44.70;101308.00;5345155;27;20077;-78
2022/08/03 12:07:22;;;;;;;5.68;1.98;;;;;;;28.94;44.43;101305.13;5345007;27;20047;-76
2022/08/03 12:10:12;;;;;;;3.55;1.92;;;;;;;28.89;44.26;101308.38;5343512;28;20031;-76
2022/08/03 12:12:45;;;;;;;7.53;2.00;;;;;;;28.95;44.48;101312.50;5345437;27;20099;-76
2022/08/03 12:15:25;;;;;;;8.52;2.35;;;;;;;29.06;44.59;101318.25;5345161;27;20106;-76
2022/08/03 12:17:57;;;;;;;17.30;11.13;;;;;;;29.16;44.54;101306.81;5344916;27;20023;-77
2022/08/03 12:20:31;;;;;;;8.60;3.47;;;;;;;29.38;43.79;101313.38;5344934;28;20036;-77
2022/08/03 12:23:06;;;;;;;8.48;2.63;;;;;;;29.28;44.38;101311.34;5345298;27;20067;-75
2022/08/03 12:25:40;;;;;;;10.27;2.30;;;;;;;29.28;43.89;101308.47;5344281;27;20027;-76
2022/08/03 12:28:16;;;;;;;4.90;2.25;;;;;;;29.33;43.44;101299.50;5343902;27;20466;-77
2022/08/03 12:30:51;;;;;;;5.05;2.50;;;;;;;29.42;42.83;101313.34;5345147;27;20467;-77
2022/08/03 12:34:02;;;;;;;7.75;2.40;;;;;;;29.43;43.16;101307.25;5345108;28;20454;-81
2022/08/03 12:36:34;;;;;;;7.47;2.28;;;;;;;29.79;42.98;101301.53;5258794;28;20025;-80
2022/08/03 12:39:08;;;;;;;5.38;2.90;;;;;;;29.63;43.16;101312.53;5318221;28;20035;-78
2022/08/03 12:41:39;;;;;;;4.35;2.50;;;;;;;29.26;42.96;101316.63;5345234;27;20030;-79
2022/08/03 12:44:11;;;;;;;4.97;2.00;;;;;;;29.22;43.79;101302.38;5340709;27;20532;-79
2022/08/03 12:46:42;;;;;;;6.28;3.03;;;;;;;29.55;42.91;101303.16;5326403;28;20047;-79
2022/08/03 12:49:17;;;;;;;4.22;2.10;;;;;;;29.73;42.31;101302.34;5328118;28;20028;-78
2022/08/03 12:51:48;;;;;;;;;;;;;;;29.86;42.44;101304.38;5332671;27;20027;-76
2022/08/03 12:54:21;;;;;;;4.80;2.42;;;;;;;29.88;42.53;101310.47;5348898;27;20320;-76
2022/08/03 12:57:09;;;;;;;5.70;2.72;;;;;;;30.01;42.01;101310.03;5349272;27;20352;-78
2022/08/03 12:59:42;;;;;;;9.90;2.88;;;;;;;30.04;42.20;101298.59;5348209;27;20110;-79
2022/08/03 13:02:27;;;;;;;4.38;2.92;;;;;;;29.95;42.61;101300.25;5346948;27;20051;-78
2022/08/03 13:05:17;;;;;;;6.47;2.42;;;;;;;29.92;42.44;101303.94;5348965;27;20048;-80
2022/08/03 13:07:48;;;;;;;10.88;9.02;;;;;;;30.15;42.27;101289.97;5347619;27;20126;-77
2022/08/03 13:10:34;;;;;;;10.27;3.40;;;;;;;30.12;42.65;101302.25;5348593;27;20564;-76
2022/08/03 13:13:05;;;;;;;5.57;2.17;;;;;;;30.44;42.50;101287.03;5347479;27;20023;-77
2022/08/03 13:15:40;;;;;;;7.90;2.70;;;;;;;30.25;42.01;101302.66;5347508;27;20075;-79
2022/08/03 13:18:11;;;;;;;5.35;2.25;;;;;;;30.28;41.82;101290.38;5341655;27;20101;-78
2022/08/03 13:20:42;;;;;;;8.30;2.72;;;;;;;30.42;42.19;101292.34;5337548;27;20102;-78
2022/08/03 13:23:14;;;;;;;6.45;2.53;;;;;;;30.61;41.78;101286.13;5348232;27;20023;-77
2022/08/03 13:25:45;;;;;;;6.57;2.55;;;;;;;30.28;41.37;101282.59;5348693;27;20458;-80
2022/08/03 13:28:16;;;;;;;4.75;2.33;;;;;;;30.58;41.73;101280.41;5347102;27;20110;-79
2022/08/03 13:30:47;;;;;;;7.28;2.67;;;;;;;30.57;41.27;101296.75;5348642;27;20155;-82
2022/08/03 13:33:19;;;;;;;6.80;2.80;;;;;;;30.77;41.54;101285.59;5348002;27;20015;-79
2022/08/03 13:35:50;;;;;;;7.95;2.47;;;;;;;30.97;40.68;101285.91;5334772;27;20360;-80
2022/08/03 13:38:31;;;;;;;4.57;2.08;;;;;;;30.73;40.64;101285.66;5397331;22;20074;-80
2022/08/03 13:41:03;;;;;;;4.10;2.50;;;;;;;30.50;41.08;101285.34;5325591;28;20116;-77
2022/08/03 13:43:34;;;;;;;5.68;2.70;;;;;;;30.43;41.22;101285.41;5325273;28;20059;-77
2022/08/03 13:46:05;;;;;;;6.32;2.20;;;;;;;30.08;41.37;101292.88;5326396;28;20027;-77
2022/08/03 13:48:36;;;;;;;4.55;2.08;;;;;;;30.39;41.15;101284.59;5325494;28;20169;-78
2022/08/03 13:51:08;;;;;;;6.65;2.45;;;;;;;30.29;40.81;101275.63;5326458;28;20036;-77
2022/08/03 13:53:39;;;;;;;4.30;1.75;;;;;;;30.66;40.49;101277.09;5326180;28;20375;-78
2022/08/03 13:56:10;;;;;;;19.40;17.40;;;;;;;30.89;41.01;101278.63;5324666;28;20413;-78
2022/08/03 13:58:41;;;;;;;7.43;2.50;;;;;;;30.44;41.13;101281.31;5325538;28;20036;-78
2022/08/03 14:01:13;;;;;;;6.40;2.35;;;;;;;30.31;41.63;101273.19;5326363;28;20019;-74
2022/08/03 14:03:47;;;;;;;6.82;2.72;;;;;;;30.51;41.38;101278.41;5325602;28;20031;-78
2022/08/03 14:06:22;;;;;;;5.95;2.20;;;;;;;30.69;40.50;101267.66;5325851;28;20020;-78
2022/08/03 14:08:54;;;;;;;6.10;2.25;;;;;;;30.28;40.19;101268.28;5325205;28;20027;-78
2022/08/03 14:11:25;;;;;;;4.07;2.08;;;;;;;30.55;39.86;101264.88;5307681;28;20026;-77
2022/08/03 14:13:56;;;;;;;4.30;1.98;;;;;;;30.98;39.51;101261.75;5325407;28;20028;-75
2022/08/03 14:16:27;;;;;;;3.70;2.10;;;;;;;31.11;38.76;101257.16;5325258;28;20544;-74
2022/08/03 14:18:59;;;;;;;4.97;2.20;;;;;;;31.29;38.62;101250.44;5325853;28;20388;-72
2022/08/03 14:21:32;;;;;;;3.30;1.95;;;;;;;31.27;38.93;101252.91;5325859;28;20489;-74
2022/08/03 14:24:03;;;;;;;7.13;2.08;;;;;;;31.55;39.16;101261.31;5324110;28;20043;-73
2022/08/03 14:26:39;;;;;;;9.10;2.97;;;;;;;31.43;38.65;101252.41;5325340;28;20452;-79
2022/08/03 14:29:10;;;;;;;9.60;5.53;;;;;;;31.23;39.11;101247.25;5320154;28;20032;-78
2022/08/03 14:31:41;;;;;;;5.25;2.90;;;;;;;31.38;39.11;101242.22;5325124;28;20031;-76
2022/08/03 14:34:13;;;;;;;3.88;2.50;;;;;;;31.55;38.49;101249.84;5325228;28;20046;-79
2022/08/03 14:36:46;;;;;;;5.38;2.13;;;;;;;31.56;38.17;101239.97;5325296;28;20544;-77
2022/08/03 14:39:17;;;;;;;7.22;2.15;;;;;;;31.57;38.22;101235.06;5324773;28;20059;-76
2022/08/03 14:41:53;;;;;;;4.93;2.00;;;;;;;31.70;38.02;101238.19;5325404;28;20055;-76
2022/08/03 14:44:26;;;;;;;4.63;2.08;;;;;;;31.87;38.12;101222.84;5323779;28;20027;-78
2022/08/03 14:46:58;;;;;;;5.63;2.13;;;;;;;31.53;38.06;101219.97;5324862;28;20027;-77
2022/08/03 14:49:29;;;;;;;4.47;2.08;;;;;;;31.34;38.27;101230.75;5324861;28;20040;-76
2022/08/03 14:52:00;;;;;;;3.60;1.83;;;;;;;31.14;38.83;101227.69;5324718;28;20028;-79
2022/08/03 14:54:32;;;;;;;5.43;2.72;;;;;;;30.92;39.89;101227.03;5324864;28;20028;-77
2022/08/03 14:57:08;;;;;;;10.70;8.52;;;;;;;30.90;39.23;101222.97;5324886;28;20032;-78
2022/08/03 14:59:39;;;;;;;3.00;2.13;;;;;;;30.94;39.36;101218.03;5323586;28;20064;-79
2022/08/03 15:02:11;;;;;;;4.85;1.83;;;;;;;31.00;39.19;101210.63;5324841;28;20466;-76
2022/08/03 15:04:45;;;;;;;3.63;1.50;;;;;;;31.05;39.09;101215.06;5324494;28;20489;-75
2022/08/03 15:07:16;;;;;;;7.37;1.83;;;;;;;30.97;38.78;101206.53;5322804;28;20483;-78
2022/08/03 15:09:47;;;;;;;5.20;1.90;;;;;;;31.05;39.46;101207.28;5315085;27;20056;-79
2022/08/03 15:12:21;;;;;;;7.18;2.08;;;;;;;31.05;39.19;101206.50;5315974;28;20044;-79
2022/08/03 15:15:02;;;;;;;5.68;2.47;;;;;;;31.03;39.41;101204.03;5305727;28;20032;-78
2022/08/03 15:17:36;;;;;;;13.57;10.82;;;;;;;30.90;39.68;101212.31;5324590;28;20035;-81
2022/08/03 15:20:10;;;;;;;6.35;2.25;;;;;;;30.86;39.10;101207.84;5323945;28;20527;-81
2022/08/03 15:22:41;;;;;;;3.88;1.40;;;;;;;30.76;38.16;101209.56;5324784;28;20031;-80
2022/08/03 15:25:13;;;;;;;10.52;9.52;;;;;;;30.83;38.38;101194.38;5324482;28;20065;-80
2022/08/03 15:27:44;;;;;;;5.40;2.67;;;;;;;30.95;38.37;101202.47;5323582;28;20114;-78
2022/08/03 15:30:15;;;;;;;6.97;2.80;;;;;;;31.00;39.06;101198.34;5324116;28;20020;-79
2022/08/03 15:32:47;;;;;;;3.72;1.70;;;;;;;31.06;38.71;101200.31;5324215;28;20024;-80
2022/08/03 15:35:19;;;;;;;5.68;2.38;;;;;;;31.06;38.96;101202.38;5322992;28;20115;-79
2022/08/03 15:37:50;;;;;;;3.63;1.80;;;;;;;30.95;38.97;101186.09;5323743;28;20483;-81
2022/08/03 15:40:21;;;;;;;5.10;2.10;;;;;;;31.20;39.24;101185.06;5323506;28;20027;-76
2022/08/03 15:42:54;;;;;;;6.07;2.60;;;;;;;31.00;39.46;101181.97;5324224;28;20035;-73
2022/08/03 15:45:26;;;;;;;6.55;2.10;;;;;;;30.95;38.76;101191.03;5323863;28;20053;-73
2022/08/03 15:47:57;;;;;;;3.58;2.05;;;;;;;31.19;38.90;101184.25;5322904;28;20110;-75
2022/08/03 15:50:28;;;;;;;3.88;1.98;;;;;;;31.14;38.48;101187.59;5318965;28;20030;-77
2022/08/03 15:53:00;;;;;;;4.38;1.73;;;;;;;31.23;37.75;101174.81;5324669;28;20601;-78
2022/08/03 15:55:33;;;;;;;5.07;1.45;;;;;;;31.32;37.92;101177.97;5322903;28;20024;-78
2022/08/03 15:58:04;;;;;;;3.90;1.75;;;;;;;31.37;37.73;101177.50;5324193;28;20031;-75
2022/08/03 16:00:37;;;;;;;8.00;2.00;;;;;;;31.30;37.78;101177.59;5324092;28;20027;-75
2022/08/03 16:03:08;;;;;;;5.00;1.92;;;;;;;31.22;38.37;101165.41;5318947;28;20163;-76
2022/08/03 16:05:40;;;;;;;4.00;2.03;;;;;;;31.19;38.17;101167.06;5323836;28;20085;-77
2022/08/03 16:08:11;;;;;;;4.75;1.98;;;;;;;31.31;38.21;101164.91;5323058;28;20024;-78
2022/08/03 16:10:42;;;;;;;4.38;1.73;;;;;;;31.42;37.78;101162.75;5323124;28;20028;-78
2022/08/03 16:13:14;;;;;;;4.80;1.60;;;;;;;31.21;37.97;101163.75;5321728;28;20039;-78
2022/08/03 16:15:47;;;;;;;2.97;1.63;;;;;;;31.16;37.94;101165.03;5322937;28;20145;-77
2022/08/03 16:18:18;;;;;;;5.10;2.22;;;;;;;31.31;38.23;101156.31;5323948;28;20026;-77
2022/08/03 16:20:49;;;;;;;4.22;1.70;;;;;;;31.22;37.90;101156.81;5328093;28;20467;-78
2022/08/03 16:23:23;;;;;;;3.15;1.67;;;;;;;31.06;38.00;101160.22;5327582;28;20456;-74
2022/08/03 16:25:56;;;;;;;6.43;1.75;;;;;;;31.02;38.16;101162.31;5328444;28;20070;-75
2022/08/03 16:28:29;;;;;;;6.57;2.05;;;;;;;30.91;38.11;101155.88;5326984;28;20417;-75
2022/08/03 16:31:03;;;;;;;4.53;1.90;;;;;;;30.83;38.70;101163.72;5326963;28;20091;-76
2022/08/03 16:33:35;;;;;;;4.40;1.45;;;;;;;30.74;38.67;101164.16;5327717;28;20460;-76
2022/08/03 16:36:06;;;;;;;4.60;1.60;;;;;;;30.67;39.01;101164.22;5310505;28;20114;-77
2022/08/03 16:38:38;;;;;;;4.43;2.20;;;;;;;30.74;39.00;101161.31;5326960;28;20051;-75
2022/08/03 16:41:09;;;;;;;6.15;2.92;;;;;;;30.60;38.96;101152.81;5326037;28;20384;-75
2022/08/03 16:43:41;;;;;;;2.40;1.75;;;;;;;30.51;39.71;101155.38;5326440;28;20026;-75
2022/08/03 16:46:12;;;;;;;4.00;1.40;;;;;;;30.45;39.42;101157.03;5327083;28;20024;-75
2022/08/03 16:48:43;;;;;;;5.95;3.88;;;;;;;30.51;39.39;101156.16;5325664;28;20096;-75
2022/08/03 16:51:14;;;;;;;5.03;1.70;;;;;;;30.35;39.81;101153.03;5327087;28;20415;-76
2022/08/03 16:53:46;;;;;;;4.65;1.75;;;;;;;30.36;39.58;101150.97;5327019;28;20413;-76
2022/08/03 16:56:17;;;;;;;2.70;1.50;;;;;;;30.38;39.27;101151.38;5327868;28;20390;-76
2022/08/03 16:58:51;;;;;;;4.07;2.97;;;;;;;30.37;39.74;101150.53;5326022;28;20464;-76
2022/08/03 17:01:23;;;;;;;3.58;1.50;;;;;;;30.35;40.03;101144.44;5327511;28;20495;-75
2022/08/03 17:04:00;;;;;;;26.27;23.77;;;;;;;30.48;39.61;101148.44;5327381;28;20102;-76
2022/08/03 17:06:39;;;;;;;17.25;16.00;;;;;;;30.36;40.09;101139.53;5326193;28;20024;-76
2022/08/03 17:09:17;;;;;;;5.30;4.80;;;;;;;30.49;39.72;101143.50;5326881;28;20107;-75
2022/08/03 17:11:49;;;;;;;2.40;1.40;;;;;;;30.49;39.44;101140.66;5325648;28;20138;-75
2022/08/03 17:14:27;;;;;;;3.85;1.88;;;;;;;30.41;40.02;101145.63;5327166;28;20114;-76
2022/08/03 17:17:02;;;;;;;3.30;2.05;;;;;;;30.51;40.54;101139.00;5327073;28;20110;-74
2022/08/03 17:19:39;;;;;;;3.88;2.10;;;;;;;30.47;40.40;101145.97;5326083;28;20027;-74
2022/08/03 17:22:13;;;;;;;3.33;1.50;;;;;;;30.76;39.67;101144.53;5326810;28;20076;-74
2022/08/03 17:24:49;;;;;;;3.45;1.50;;;;;;;30.81;39.18;101137.53;5327048;28;20515;-76
2022/08/03 17:27:29;;;;;;;2.90;1.50;;;;;;;30.96;39.28;101141.09;5326285;28;20031;-75
2022/08/03 17:30:11;;;;;;;3.92;1.80;;;;;;;31.10;38.10;101138.09;5324971;28;20031;-76
